createdAt,value
2018-05-07T00:00:58.526Z,16.89
2018-05-07T00:01:58.430Z,16.89
2018-05-07T00:02:58.372Z,16.83
2018-05-07T00:03:58.416Z,16.89
2018-05-07T00:04:58.412Z,16.89
2018-05-07T00:05:58.450Z,16.93
2018-05-07T00:06:58.463Z,16.89
2018-05-07T00:07:58.377Z,16.89
2018-05-07T00:08:58.654Z,16.91
2018-05-07T00:09:58.427Z,16.98
2018-05-07T00:10:58.418Z,16.96
2018-05-07T00:11:58.429Z,16.96
2018-05-07T00:12:58.447Z,16.88
2018-05-07T00:13:58.478Z,16.88
2018-05-07T00:14:58.453Z,16.91
2018-05-07T00:15:58.433Z,16.76
2018-05-07T00:16:58.458Z,16.83
2018-05-07T00:17:58.474Z,16.79
2018-05-07T00:18:58.448Z,16.89
2018-05-07T00:19:58.437Z,16.86
2018-05-07T00:20:58.449Z,16.76
2018-05-07T00:21:58.487Z,16.75
2018-05-07T00:22:58.483Z,16.76
2018-05-07T00:23:58.436Z,16.81
2018-05-07T00:24:58.485Z,16.75
2018-05-07T00:25:58.498Z,16.64
2018-05-07T00:26:58.510Z,16.63
2018-05-07T00:27:58.496Z,16.71
2018-05-07T00:28:58.493Z,16.64
2018-05-07T00:29:58.501Z,16.56
2018-05-07T00:30:58.514Z,16.64
2018-05-07T00:31:58.515Z,16.58
2018-05-07T00:32:58.548Z,16.57
2018-05-07T00:33:58.540Z,16.56
2018-05-07T00:34:58.567Z,16.61
2018-05-07T00:35:58.551Z,16.64
2018-05-07T00:36:58.503Z,16.64
2018-05-07T00:37:58.565Z,16.58
2018-05-07T00:38:58.477Z,16.61
2018-05-07T00:39:58.569Z,16.63
2018-05-07T00:40:58.534Z,16.53
2018-05-07T00:41:58.534Z,16.48
2018-05-07T00:42:58.549Z,16.56
2018-05-07T00:43:58.538Z,16.42
2018-05-07T00:44:58.525Z,16.45
2018-05-07T00:45:58.522Z,16.41
2018-05-07T00:46:58.534Z,16.41
2018-05-07T00:47:58.542Z,16.41
2018-05-07T00:48:58.557Z,16.35
2018-05-07T00:49:58.547Z,16.31
2018-05-07T00:50:58.577Z,16.28
2018-05-07T00:51:58.571Z,16.33
2018-05-07T00:52:58.569Z,16.38
2018-05-07T00:53:58.572Z,16.31
2018-05-07T00:54:58.603Z,16.28
2018-05-07T00:55:58.572Z,16.24
2018-05-07T00:56:58.621Z,16.24
2018-05-07T00:57:58.555Z,16.24
2018-05-07T00:58:58.591Z,16.20
2018-05-07T00:59:58.594Z,16.21
2018-05-07T01:00:58.591Z,16.11
2018-05-07T01:01:58.598Z,16.25
2018-05-07T01:02:58.596Z,16.25
2018-05-07T01:03:58.638Z,16.27
2018-05-07T01:04:58.635Z,16.09
2018-05-07T01:05:58.630Z,16.05
2018-05-07T01:06:58.644Z,16.11
2018-05-07T01:07:58.599Z,16.04
2018-05-07T01:08:58.611Z,16.09
2018-05-07T01:09:58.890Z,16.08
2018-05-07T01:10:58.626Z,16.01
2018-05-07T01:11:58.655Z,16.00
2018-05-07T01:12:58.607Z,16.01
2018-05-07T01:13:58.586Z,15.97
2018-05-07T01:14:58.639Z,15.93
2018-05-07T01:15:58.612Z,15.96
2018-05-07T01:16:58.643Z,15.90
2018-05-07T01:17:58.626Z,15.96
2018-05-07T01:18:58.631Z,15.92
2018-05-07T01:19:58.653Z,15.94
2018-05-07T01:20:58.650Z,15.94
2018-05-07T01:21:58.626Z,15.89
2018-05-07T01:22:58.658Z,15.90
2018-05-07T01:23:58.679Z,15.90
2018-05-07T01:24:58.621Z,15.89
2018-05-07T01:25:58.649Z,15.87
2018-05-07T01:26:58.666Z,15.87
2018-05-07T01:27:58.627Z,15.86
2018-05-07T01:28:58.665Z,15.87
2018-05-07T01:29:58.664Z,15.89
2018-05-07T01:30:58.732Z,15.84
2018-05-07T01:31:58.624Z,15.86
2018-05-07T01:32:59.151Z,15.78
2018-05-07T01:33:58.679Z,15.84
2018-05-07T01:34:58.697Z,15.75
2018-05-07T01:35:58.758Z,15.72
2018-05-07T01:36:58.738Z,15.82
2018-05-07T01:37:58.669Z,15.65
2018-05-07T01:38:58.695Z,15.64
2018-05-07T01:39:58.659Z,15.68
2018-05-07T01:40:58.763Z,15.65
2018-05-07T01:41:58.711Z,15.62
2018-05-07T01:42:58.701Z,15.71
2018-05-07T01:43:58.693Z,15.83
2018-05-07T01:44:58.757Z,15.65
2018-05-07T01:45:58.719Z,15.68
2018-05-07T01:46:58.713Z,15.71
2018-05-07T01:47:58.736Z,15.71
2018-05-07T01:48:58.732Z,15.71
2018-05-07T01:49:58.726Z,15.59
2018-05-07T01:50:58.728Z,15.64
2018-05-07T01:51:58.749Z,15.59
2018-05-07T01:52:58.710Z,15.60
2018-05-07T01:53:58.759Z,15.67
2018-05-07T01:54:58.755Z,15.59
2018-05-07T01:55:58.690Z,15.65
2018-05-07T01:56:58.703Z,15.60
2018-05-07T01:57:58.777Z,15.60
2018-05-07T01:58:58.759Z,15.59
2018-05-07T01:59:58.751Z,15.57
2018-05-07T02:00:59.656Z,15.54
2018-05-07T02:01:58.774Z,15.59
2018-05-07T02:02:58.752Z,15.65
2018-05-07T02:03:58.792Z,15.65
2018-05-07T02:04:58.741Z,15.64
2018-05-07T02:05:58.753Z,15.62
2018-05-07T02:06:58.750Z,15.59
2018-05-07T02:07:58.752Z,15.67
2018-05-07T02:08:58.774Z,15.59
2018-05-07T02:09:58.778Z,15.62
2018-05-07T02:10:58.801Z,15.57
2018-05-07T02:11:58.782Z,15.60
2018-05-07T02:12:58.807Z,15.59
2018-05-07T02:13:58.808Z,15.56
2018-05-07T02:14:58.789Z,15.56
2018-05-07T02:15:58.842Z,15.47
2018-05-07T02:16:58.823Z,15.46
2018-05-07T02:17:58.819Z,15.47
2018-05-07T02:18:58.779Z,15.43
2018-05-07T02:19:58.822Z,15.43
2018-05-07T02:20:58.835Z,15.47
2018-05-07T02:21:58.775Z,15.49
2018-05-07T02:22:58.887Z,15.41
2018-05-07T02:23:59.664Z,15.31
2018-05-07T02:24:58.799Z,15.31
2018-05-07T02:25:58.842Z,15.31
2018-05-07T02:26:59.670Z,15.25
2018-05-07T02:27:58.841Z,15.27
2018-05-07T02:28:58.822Z,15.23
2018-05-07T02:29:58.826Z,15.21
2018-05-07T02:30:59.825Z,15.11
2018-05-07T02:31:58.831Z,15.16
2018-05-07T02:32:58.826Z,15.09
2018-05-07T02:33:58.897Z,15.14
2018-05-07T02:34:58.838Z,15.10
2018-05-07T02:35:58.858Z,15.13
2018-05-07T02:36:58.831Z,15.11
2018-05-07T02:37:58.862Z,15.06
2018-05-07T02:38:58.864Z,14.98
2018-05-07T02:39:58.886Z,15.03
2018-05-07T02:40:58.844Z,15.10
2018-05-07T02:41:58.896Z,15.03
2018-05-07T02:42:58.831Z,15.09
2018-05-07T02:43:58.851Z,15.10
2018-05-07T02:44:58.965Z,14.95
2018-05-07T02:45:58.901Z,15.09
2018-05-07T02:46:58.881Z,15.06
2018-05-07T02:47:58.869Z,14.98
2018-05-07T02:48:58.864Z,14.99
2018-05-07T02:49:58.894Z,15.03
2018-05-07T02:50:58.934Z,15.06
2018-05-07T02:51:58.896Z,14.92
2018-05-07T02:52:58.869Z,14.98
2018-05-07T02:53:59.090Z,14.92
2018-05-07T02:54:58.875Z,14.94
2018-05-07T02:55:58.895Z,14.98
2018-05-07T02:56:58.940Z,14.95
2018-05-07T02:57:59.681Z,14.98
2018-05-07T02:58:58.905Z,14.92
2018-05-07T02:59:58.928Z,14.98
2018-05-07T03:00:58.904Z,15.06
2018-05-07T03:01:58.960Z,15.03
2018-05-07T03:02:58.939Z,14.94
2018-05-07T03:03:58.916Z,15.01
2018-05-07T03:04:58.929Z,14.95
2018-05-07T03:05:59.005Z,14.95
2018-05-07T03:06:58.911Z,14.95
2018-05-07T03:07:58.996Z,14.95
2018-05-07T03:08:58.944Z,14.92
2018-05-07T03:09:58.977Z,15.01
2018-05-07T03:10:58.953Z,14.96
2018-05-07T03:11:59.090Z,14.95
2018-05-07T03:12:58.925Z,15.01
2018-05-07T03:13:58.948Z,14.96
2018-05-07T03:14:58.953Z,14.94
2018-05-07T03:15:58.959Z,14.92
2018-05-07T03:16:58.952Z,14.94
2018-05-07T03:17:58.977Z,14.94
2018-05-07T03:18:58.934Z,14.88
2018-05-07T03:19:58.948Z,14.84
2018-05-07T03:20:58.953Z,14.78
2018-05-07T03:21:58.990Z,14.81
2018-05-07T03:22:58.997Z,14.96
2018-05-07T03:23:58.978Z,14.94
2018-05-07T03:24:59.011Z,14.88
2018-05-07T03:25:58.999Z,14.88
2018-05-07T03:26:58.970Z,14.88
2018-05-07T03:27:58.981Z,14.86
2018-05-07T03:28:59.045Z,14.80
2018-05-07T03:29:59.003Z,14.81
2018-05-07T03:30:58.963Z,14.84
2018-05-07T03:31:59.006Z,14.84
2018-05-07T03:32:59.010Z,14.73
2018-05-07T03:33:59.010Z,14.80
2018-05-07T03:34:58.961Z,14.91
2018-05-07T03:35:59.004Z,14.95
2018-05-07T03:36:58.974Z,14.83
2018-05-07T03:37:59.016Z,14.83
2018-05-07T03:38:58.990Z,14.78
2018-05-07T03:39:59.107Z,14.86
2018-05-07T03:40:59.043Z,14.80
2018-05-07T03:41:59.074Z,14.80
2018-05-07T03:42:59.008Z,14.80
2018-05-07T03:43:59.049Z,14.89
2018-05-07T03:44:59.035Z,14.83
2018-05-07T03:45:59.061Z,14.75
2018-05-07T03:46:59.074Z,14.73
2018-05-07T03:47:59.084Z,14.77
2018-05-07T03:48:59.050Z,14.72
2018-05-07T03:49:59.064Z,14.78
2018-05-07T03:50:59.047Z,14.70
2018-05-07T03:51:59.055Z,14.73
2018-05-07T03:52:59.078Z,14.72
2018-05-07T03:53:59.082Z,14.70
2018-05-07T03:54:59.107Z,14.61
2018-05-07T03:55:59.075Z,14.62
2018-05-07T03:56:59.094Z,14.64
2018-05-07T03:57:59.106Z,14.64
2018-05-07T03:58:59.020Z,14.64
2018-05-07T03:59:59.079Z,14.68
2018-05-07T04:00:59.073Z,14.55
2018-05-07T04:01:59.048Z,14.61
2018-05-07T04:02:59.079Z,14.57
2018-05-07T04:03:59.059Z,14.65
2018-05-07T04:04:59.093Z,14.58
2018-05-07T04:05:59.695Z,14.68
2018-05-07T04:06:59.072Z,14.58
2018-05-07T04:07:59.151Z,14.58
2018-05-07T04:08:59.092Z,14.58
2018-05-07T04:09:59.138Z,14.65
2018-05-07T04:10:59.093Z,14.61
2018-05-07T04:11:59.701Z,14.62
2018-05-07T04:12:59.152Z,14.64
2018-05-07T04:13:59.111Z,14.65
2018-05-07T04:14:59.115Z,14.60
2018-05-07T04:15:59.128Z,14.64
2018-05-07T04:16:59.132Z,14.61
2018-05-07T04:17:59.121Z,14.61
2018-05-07T04:18:59.081Z,14.60
2018-05-07T04:19:59.150Z,14.64
2018-05-07T04:20:59.086Z,14.55
2018-05-07T04:21:59.149Z,14.60
2018-05-07T04:22:59.133Z,14.57
2018-05-07T04:23:59.194Z,14.64
2018-05-07T04:24:59.155Z,14.68
2018-05-07T04:25:59.143Z,14.68
2018-05-07T04:26:59.209Z,14.69
2018-05-07T04:27:59.135Z,14.60
2018-05-07T04:28:59.109Z,14.72
2018-05-07T04:29:59.132Z,14.65
2018-05-07T04:30:59.152Z,14.70
2018-05-07T04:31:59.159Z,14.69
2018-05-07T04:32:59.145Z,14.68
2018-05-07T04:33:59.171Z,14.69
2018-05-07T04:34:59.174Z,14.65
2018-05-07T04:35:59.161Z,14.62
2018-05-07T04:36:59.165Z,14.69
2018-05-07T04:37:59.323Z,14.81
2018-05-07T04:38:59.191Z,14.68
2018-05-07T04:39:59.183Z,14.75
2018-05-07T04:40:59.190Z,14.73
2018-05-07T04:41:59.219Z,14.64
2018-05-07T04:42:59.382Z,14.75
2018-05-07T04:43:59.219Z,14.68
2018-05-07T04:44:59.201Z,14.72
2018-05-07T04:45:59.242Z,14.73
2018-05-07T04:46:59.221Z,14.81
2018-05-07T04:47:59.186Z,14.68
2018-05-07T04:48:59.294Z,14.65
2018-05-07T04:49:59.261Z,14.78
2018-05-07T04:50:59.182Z,14.73
2018-05-07T04:51:59.196Z,14.84
2018-05-07T04:52:59.282Z,14.81
2018-05-07T04:53:59.218Z,14.86
2018-05-07T04:54:59.353Z,14.84
2018-05-07T04:55:59.214Z,14.84
2018-05-07T04:56:59.233Z,14.81
2018-05-07T04:57:59.223Z,14.88
2018-05-07T04:58:59.221Z,14.88
2018-05-07T04:59:59.240Z,15.02
2018-05-07T05:00:59.258Z,14.86
2018-05-07T05:01:59.214Z,14.91
2018-05-07T05:02:59.231Z,14.98
2018-05-07T05:03:59.205Z,15.02
2018-05-07T05:04:59.208Z,14.98
2018-05-07T05:05:59.907Z,15.07
2018-05-07T05:06:59.284Z,15.10
2018-05-07T05:07:59.278Z,15.14
2018-05-07T05:08:59.296Z,15.14
2018-05-07T05:09:59.229Z,15.17
2018-05-07T05:10:59.238Z,15.34
2018-05-07T05:11:59.275Z,15.29
2018-05-07T05:12:59.713Z,15.35
2018-05-07T05:13:59.269Z,15.38
2018-05-07T05:14:59.252Z,15.38
2018-05-07T05:15:59.282Z,15.49
2018-05-07T05:16:59.430Z,15.50
2018-05-07T05:17:59.276Z,15.49
2018-05-07T05:18:59.377Z,15.57
2018-05-07T05:19:59.295Z,15.68
2018-05-07T05:20:59.370Z,15.71
2018-05-07T05:21:59.289Z,15.72
2018-05-07T05:22:59.321Z,15.72
2018-05-07T05:23:59.330Z,15.72
2018-05-07T05:24:59.302Z,15.75
2018-05-07T05:25:59.269Z,15.86
2018-05-07T05:26:59.395Z,15.84
2018-05-07T05:27:59.400Z,15.87
2018-05-07T05:28:59.340Z,15.97
2018-05-07T05:29:59.276Z,16.04
2018-05-07T05:30:59.427Z,16.05
2018-05-07T05:31:59.337Z,16.31
2018-05-07T05:32:59.381Z,17.63
2018-05-07T05:33:59.305Z,18.67
2018-05-07T05:34:59.331Z,19.86
2018-05-07T05:35:59.384Z,20.14
2018-05-07T05:36:59.407Z,20.26
2018-05-07T05:37:59.395Z,19.39
2018-05-07T05:38:59.426Z,19.86
2018-05-07T05:39:59.325Z,20.14
2018-05-07T05:40:59.423Z,20.47
2018-05-07T05:41:59.446Z,19.77
2018-05-07T05:42:59.436Z,20.02
2018-05-07T05:43:59.362Z,20.28
2018-05-07T05:44:59.349Z,20.01
2018-05-07T05:45:59.356Z,20.51
2018-05-07T05:47:00.233Z,19.92
2018-05-07T05:47:59.507Z,19.02
2018-05-07T05:48:59.404Z,18.67
2018-05-07T05:49:59.551Z,18.62
2018-05-07T05:50:59.416Z,19.00
2018-05-07T05:51:59.394Z,19.14
2018-05-07T05:52:59.430Z,19.26
2018-05-07T05:53:59.503Z,19.26
2018-05-07T05:54:59.558Z,19.63
2018-05-07T05:56:00.236Z,19.37
2018-05-07T05:56:59.499Z,19.87
2018-05-07T05:57:59.433Z,20.94
2018-05-07T05:58:59.486Z,21.27
2018-05-07T05:59:59.493Z,21.91
2018-05-07T06:00:59.383Z,22.09
2018-05-07T06:01:59.465Z,22.21
2018-05-07T06:02:59.521Z,22.52
2018-05-07T06:03:59.506Z,23.05
2018-05-07T06:04:59.456Z,22.91
2018-05-07T06:05:59.509Z,22.65
2018-05-07T06:06:59.501Z,23.42
2018-05-07T06:07:59.445Z,24.49
2018-05-07T06:08:59.428Z,25.24
2018-05-07T06:09:59.594Z,25.43
2018-05-07T06:11:00.379Z,24.08
2018-05-07T06:11:59.499Z,24.76
2018-05-07T06:12:59.531Z,23.46
2018-05-07T06:13:59.512Z,23.68
2018-05-07T06:14:59.638Z,24.08
2018-05-07T06:15:59.607Z,23.95
2018-05-07T06:16:59.570Z,23.93
2018-05-07T06:17:59.537Z,22.52
2018-05-07T06:18:59.519Z,23.36
2018-05-07T06:19:59.599Z,23.22
2018-05-07T06:20:59.619Z,22.54
2018-05-07T06:21:59.611Z,22.64
2018-05-07T06:22:59.530Z,22.12
2018-05-07T06:23:59.549Z,23.60
2018-05-07T06:24:59.606Z,24.47
2018-05-07T06:25:59.657Z,24.58
2018-05-07T06:26:59.688Z,23.17
2018-05-07T06:27:59.607Z,23.75
2018-05-07T06:28:59.578Z,24.22
2018-05-07T06:29:59.613Z,24.16
2018-05-07T06:30:59.704Z,24.46
2018-05-07T06:31:59.611Z,25.40
2018-05-07T06:32:59.660Z,25.82
2018-05-07T06:34:00.254Z,25.21
2018-05-07T06:34:59.647Z,24.76
2018-05-07T06:35:59.680Z,24.24
2018-05-07T06:36:59.896Z,23.72
2018-05-07T06:37:59.797Z,22.64
2018-05-07T06:38:59.684Z,23.15
2018-05-07T06:39:59.672Z,23.46
2018-05-07T06:40:59.765Z,24.64
2018-05-07T06:42:00.264Z,24.22
2018-05-07T06:42:59.807Z,23.68
2018-05-07T06:43:59.907Z,24.12
2018-05-07T06:44:59.830Z,24.69
2018-05-07T06:45:59.853Z,24.69
2018-05-07T06:46:59.834Z,24.73
2018-05-07T06:47:59.843Z,25.13
2018-05-07T06:48:59.841Z,23.84
2018-05-07T06:49:59.817Z,23.95
2018-05-07T06:50:59.993Z,24.28
2018-05-07T06:51:59.863Z,24.96
2018-05-07T06:53:00.420Z,25.24
2018-05-07T06:53:59.882Z,25.43
2018-05-07T06:54:59.903Z,25.87
2018-05-07T06:55:59.918Z,25.79
2018-05-07T06:56:59.980Z,26.43
2018-05-07T06:57:59.889Z,25.77
2018-05-07T06:58:59.890Z,25.13
2018-05-07T07:00:00.357Z,25.32
2018-05-07T07:00:59.994Z,25.18
2018-05-07T07:01:59.883Z,25.94
2018-05-07T07:02:59.969Z,26.06
2018-05-07T07:03:59.901Z,25.51
2018-05-07T07:04:59.901Z,25.35
2018-05-07T07:05:59.966Z,24.93
2018-05-07T07:06:59.951Z,25.46
2018-05-07T07:08:00.265Z,25.61
2018-05-07T07:09:01.434Z,25.76
2018-05-07T07:10:00.034Z,25.46
2018-05-07T07:11:00.452Z,25.92
2018-05-07T07:12:01.032Z,26.54
2018-05-07T07:13:01.164Z,26.40
2018-05-07T07:14:00.501Z,26.62
2018-05-07T07:15:00.754Z,25.72
2018-05-07T07:16:00.476Z,25.64
2018-05-07T07:17:00.380Z,25.70
2018-05-07T07:18:00.062Z,26.06
2018-05-07T07:19:00.123Z,26.55
2018-05-07T07:20:00.111Z,25.57
2018-05-07T07:21:00.114Z,25.55
2018-05-07T07:22:00.105Z,26.51
2018-05-07T07:23:00.112Z,26.44
2018-05-07T07:24:00.409Z,26.20
2018-05-07T07:25:01.032Z,26.40
2018-05-07T22:00:58.670Z,19.43
2018-05-07T22:01:58.614Z,19.28
2018-05-07T22:03:52.441Z,19.29
2018-05-07T22:04:52.080Z,19.26
2018-05-07T22:05:52.300Z,19.23
2018-05-07T22:06:52.277Z,19.22
2018-05-07T22:07:52.103Z,19.22
2018-05-07T22:08:52.056Z,19.22
2018-05-07T22:09:52.081Z,19.18
2018-05-07T22:10:52.086Z,19.11
2018-05-07T22:11:52.074Z,19.08
2018-05-07T22:12:52.130Z,19.06
2018-05-07T22:13:52.076Z,18.92
2018-05-07T22:14:52.111Z,18.94
2018-05-07T22:15:52.087Z,18.85
2018-05-07T22:16:52.125Z,18.85
2018-05-07T22:17:52.102Z,18.87
2018-05-07T22:18:52.140Z,18.76
2018-05-07T22:19:52.144Z,18.75
2018-05-07T22:20:52.118Z,18.73
2018-05-07T22:21:52.113Z,18.65
2018-05-07T22:22:52.173Z,18.60
2018-05-07T22:23:52.146Z,18.66
2018-05-07T22:24:52.293Z,18.54
2018-05-07T22:25:52.129Z,18.45
2018-05-07T22:26:52.166Z,18.47
2018-05-07T22:27:52.148Z,18.47
2018-05-07T22:28:52.273Z,18.42
2018-05-07T22:29:52.161Z,18.45
2018-05-07T22:30:52.198Z,18.33
2018-05-07T22:31:52.180Z,18.42
2018-05-07T22:32:52.189Z,18.29
2018-05-07T22:33:52.177Z,18.30
2018-05-07T22:34:53.012Z,18.35
2018-05-07T22:35:52.195Z,18.18
2018-05-07T22:36:52.227Z,18.29
2018-05-07T22:37:52.167Z,18.25
2018-05-07T22:38:53.026Z,18.23
2018-05-07T22:39:52.414Z,18.20
2018-05-07T22:40:52.205Z,18.17
2018-05-07T22:41:52.220Z,18.17
2018-05-07T22:42:52.250Z,18.12
2018-05-07T22:43:52.205Z,17.99
2018-05-07T22:44:52.258Z,18.14
2018-05-07T22:45:52.204Z,18.03
2018-05-07T22:46:52.257Z,18.03
2018-05-07T22:47:52.266Z,17.93
2018-05-07T22:48:52.270Z,17.96
2018-05-07T22:49:52.220Z,17.90
2018-05-07T22:50:52.230Z,17.93
2018-05-07T22:51:54.160Z,17.82
2018-05-07T22:52:52.222Z,17.75
2018-05-07T22:53:53.518Z,17.78
2018-05-07T22:54:52.262Z,17.64
2018-05-07T22:55:52.245Z,17.70
2018-05-07T22:56:52.254Z,17.51
2018-05-07T22:57:53.526Z,17.62
2018-05-07T22:58:53.042Z,17.52
2018-05-07T22:59:53.030Z,17.48
2018-05-07T23:00:53.578Z,17.38
2018-05-07T23:01:52.252Z,17.23
2018-05-07T23:02:52.291Z,17.31
2018-05-07T23:03:53.019Z,17.33
2018-05-07T23:04:53.032Z,17.33
2018-05-07T23:05:52.291Z,17.25
2018-05-07T23:06:52.365Z,17.22
2018-05-07T23:07:53.044Z,17.19
2018-05-07T23:08:53.038Z,17.14
2018-05-07T23:09:52.325Z,17.16
2018-05-07T23:10:52.298Z,17.16
2018-05-07T23:11:52.325Z,17.18
2018-05-07T23:12:52.368Z,17.15
2018-05-07T23:13:52.397Z,17.14
2018-05-07T23:14:52.393Z,17.18
2018-05-07T23:15:52.412Z,17.12
2018-05-07T23:16:52.338Z,17.16
2018-05-07T23:17:52.371Z,17.14
2018-05-07T23:18:52.342Z,17.16
2018-05-07T23:19:52.398Z,17.18
2018-05-07T23:20:52.329Z,17.23
2018-05-07T23:21:52.341Z,17.18
2018-05-07T23:22:52.347Z,17.12
2018-05-07T23:23:52.359Z,17.08
2018-05-07T23:24:53.361Z,17.12
2018-05-07T23:25:52.339Z,17.06
2018-05-07T23:26:52.393Z,17.08
2018-05-07T23:27:52.337Z,17.12
2018-05-07T23:28:52.406Z,17.12
2018-05-07T23:29:52.406Z,17.07
2018-05-07T23:30:52.393Z,17.07
2018-05-07T23:31:52.376Z,17.11
2018-05-07T23:32:52.410Z,17.12
2018-05-07T23:33:52.352Z,17.07
2018-05-07T23:34:52.386Z,17.11
2018-05-07T23:35:52.363Z,17.11
2018-05-07T23:36:52.478Z,17.12
2018-05-07T23:37:52.419Z,17.14
2018-05-07T23:38:52.389Z,17.07
2018-05-07T23:39:52.412Z,17.07
2018-05-07T23:40:52.387Z,17.04
2018-05-07T23:41:52.443Z,17.01
2018-05-07T23:42:52.436Z,17.00
2018-05-07T23:43:52.474Z,17.08
2018-05-07T23:44:52.446Z,17.01
2018-05-07T23:45:52.477Z,17.01
2018-05-07T23:46:52.423Z,16.93
2018-05-07T23:47:52.430Z,16.98
2018-05-07T23:48:52.467Z,16.94
2018-05-07T23:49:52.538Z,16.86
2018-05-07T23:50:52.460Z,16.97
2018-05-07T23:51:52.459Z,16.97
2018-05-07T23:52:52.431Z,16.85
2018-05-07T23:53:52.424Z,16.93
2018-05-07T23:54:52.470Z,16.94
2018-05-07T23:55:52.481Z,16.89
2018-05-07T23:56:53.047Z,16.73
2018-05-07T23:57:52.450Z,16.75
2018-05-07T23:58:52.468Z,16.93
2018-05-07T23:59:52.567Z,16.89
